Time;durP1;ratioP1;P1;durP2;ratioP2;P2;SDS_P1;SDS_P2;PMS_P1;PMS_P2;Temp;Humidity;BMP_temperature;BMP_pressure;BME280_temperature;BME280_humidity;BME280_pressure;Samples;Min_cycle;Max_cycle;Signal;HPM_P1;HPM_P2
2023/08/25 00:00:09;;;;;;;5.43;3.60;;;;;;;;;;5086911;28;20077;-91
2023/08/25 00:02:35;;;;;;;8.32;4.57;;;;;;;;;;5072647;28;20372;-91
2023/08/25 00:05:01;;;;;;;7.28;3.90;;;;;;;;;;5062501;28;20032;-91
2023/08/25 00:07:29;;;;;;;6.78;3.40;;;;;;;;;;5054164;28;20020;-90
2023/08/25 00:09:54;;;;;;;5.93;4.30;;;;;;;;;;5055528;28;20021;-93
2023/08/25 00:12:27;;;;;;;9.05;3.88;;;;;;;;;;5072983;28;20024;-91
2023/08/25 00:14:53;;;;;;;7.18;3.90;;;;;;;;;;5073045;28;20013;-90
2023/08/25 00:17:18;;;;;;;6.18;3.75;;;;;;;;;;5053930;28;20019;-91
2023/08/25 00:19:46;;;;;;;10.20;4.13;;;;;;;;;;5066140;28;20028;-90
2023/08/25 00:22:13;;;;;;;8.15;3.63;;;;;;;;;;5080964;28;20044;-91
2023/08/25 00:24:38;;;;;;;4.03;3.10;;;;;;;;;;5076540;28;20080;-90
2023/08/25 00:27:04;;;;;;;4.85;3.22;;;;;;;;;;5059317;28;20503;-90
2023/08/25 00:29:36;;;;;;;9.38;3.78;;;;;;;;;;5080897;28;20021;-84
2023/08/25 00:32:05;;;;;;;15.07;4.00;;;;;;;;;;5071404;28;20104;-89
2023/08/25 00:34:34;;;;;;;9.13;3.92;;;;;;;;;;5072080;28;20032;-90
2023/08/25 00:37:01;;;;;;;6.40;3.72;;;;;;;;;;5067944;28;20040;-83
2023/08/25 00:39:27;;;;;;;8.93;4.30;;;;;;;;;;5078999;28;20029;-89
2023/08/25 00:41:53;;;;;;;7.45;4.35;;;;;;;;;;5083378;28;20024;-90
2023/08/25 00:44:31;;;;;;;6.55;4.47;;;;;;;;;;5070011;28;20032;-89
2023/08/25 00:46:59;;;;;;;7.97;4.47;;;;;;;;;;5069349;28;20025;-89
2023/08/25 00:49:25;;;;;;;7.72;4.38;;;;;;;;;;5083442;28;20027;-88
2023/08/25 00:51:52;;;;;;;8.02;4.70;;;;;;;;;;5077501;28;20084;-88
2023/08/25 00:54:18;;;;;;;11.88;4.88;;;;;;;;;;5060403;28;20028;-89
2023/08/25 00:56:44;;;;;;;10.00;4.68;;;;;;;;;;5069858;28;20037;-89
2023/08/25 00:59:10;;;;;;;9.60;4.75;;;;;;;;;;5055216;28;20074;-89
2023/08/25 01:01:35;;;;;;;6.05;4.47;;;;;;;;;;5059317;28;20074;-89
2023/08/25 01:04:02;;;;;;;8.25;5.18;;;;;;;;;;5058751;28;20123;-89
2023/08/25 01:06:27;;;;;;;8.45;5.20;;;;;;;;;;5058876;28;20422;-88
2023/08/25 01:08:53;;;;;;;7.47;4.43;;;;;;;;;;5058604;28;20077;-89
2023/08/25 01:11:37;;;;;;;7.57;4.93;;;;;;;;;;5074643;28;20043;-89
2023/08/25 01:14:07;;;;;;;9.32;4.57;;;;;;;;;;5049754;28;20027;-89
2023/08/25 01:16:44;;;;;;;7.82;4.90;;;;;;;;;;5058698;28;20028;-90
2023/08/25 01:19:26;;;;;;;8.70;4.65;;;;;;;;;;5057926;28;20055;-88
2023/08/25 01:21:51;;;;;;;8.88;4.50;;;;;;;;;;5058159;28;20114;-90
2023/08/25 01:24:21;;;;;;;7.55;4.53;;;;;;;;;;5056695;28;20040;-89
2023/08/25 01:26:47;;;;;;;9.93;4.70;;;;;;;;;;5057529;28;20036;-89
2023/08/25 01:29:15;;;;;;;8.02;4.68;;;;;;;;;;5056168;28;20035;-89
2023/08/25 01:31:41;;;;;;;8.90;4.75;;;;;;;;;;5056511;28;20140;-89
2023/08/25 01:34:07;;;;;;;11.85;4.47;;;;;;;;;;5056768;28;20036;-89
2023/08/25 01:36:32;;;;;;;8.00;4.15;;;;;;;;;;5056214;28;20066;-88
2023/08/25 01:39:30;;;;;;;11.25;4.65;;;;;;;;;;5073927;28;20523;-89
2023/08/25 01:42:02;;;;;;;5.10;3.67;;;;;;;;;;5030217;28;20064;-90
2023/08/25 01:44:28;;;;;;;6.18;3.95;;;;;;;;;;5064195;28;20021;-89
2023/08/25 01:46:58;;;;;;;7.50;3.70;;;;;;;;;;5059900;28;20548;-89
2023/08/25 01:49:24;;;;;;;9.85;4.10;;;;;;;;;;5078484;28;20058;-89
2023/08/25 01:51:52;;;;;;;5.55;3.80;;;;;;;;;;5058174;28;20021;-89
2023/08/25 01:54:19;;;;;;;9.02;4.00;;;;;;;;;;5073936;28;20013;-89
2023/08/25 01:56:45;;;;;;;5.88;3.42;;;;;;;;;;5064183;28;20028;-86
2023/08/25 01:59:11;;;;;;;7.85;4.53;;;;;;;;;;5068665;28;20021;-90
2023/08/25 02:01:37;;;;;;;8.63;4.35;;;;;;;;;;5070789;28;20024;-83
2023/08/25 02:04:05;;;;;;;6.07;4.28;;;;;;;;;;5083726;28;20028;-91
2023/08/25 02:06:35;;;;;;;7.22;4.35;;;;;;;;;;5081714;28;20017;-89
2023/08/25 02:09:01;;;;;;;10.02;3.80;;;;;;;;;;5080834;28;20406;-90
2023/08/25 02:11:27;;;;;;;9.70;4.05;;;;;;;;;;5077814;28;20471;-90
2023/08/25 02:13:53;;;;;;;5.25;3.67;;;;;;;;;;5068278;28;20040;-91
2023/08/25 02:16:19;;;;;;;9.30;3.70;;;;;;;;;;5085367;28;20031;-89
2023/08/25 02:18:44;;;;;;;5.45;3.42;;;;;;;;;;5058936;28;20012;-89
2023/08/25 02:21:10;;;;;;;7.82;3.97;;;;;;;;;;5058829;28;20036;-89
2023/08/25 02:23:40;;;;;;;6.93;3.55;;;;;;;;;;5075621;28;20033;-89
2023/08/25 02:26:10;;;;;;;5.90;3.30;;;;;;;;;;5068378;28;20020;-89
2023/08/25 02:28:36;;;;;;;10.48;3.63;;;;;;;;;;5075398;28;20047;-89
2023/08/25 02:31:02;;;;;;;7.18;3.53;;;;;;;;;;5057754;28;20016;-89
2023/08/25 02:33:27;;;;;;;6.78;3.28;;;;;;;;;;5057412;28;20107;-89
2023/08/25 02:35:52;;;;;;;8.20;3.63;;;;;;;;;;5057060;28;20110;-89
2023/08/25 02:38:18;;;;;;;5.57;4.00;;;;;;;;;;5056902;28;20028;-89
2023/08/25 02:40:43;;;;;;;8.52;4.25;;;;;;;;;;5054986;28;20115;-88
2023/08/25 02:43:08;;;;;;;9.52;3.97;;;;;;;;;;5056937;28;20080;-88
2023/08/25 02:45:34;;;;;;;6.18;4.10;;;;;;;;;;5057243;28;20026;-89
2023/08/25 02:48:00;;;;;;;8.05;3.67;;;;;;;;;;5056972;28;20020;-89
2023/08/25 02:50:25;;;;;;;7.72;4.05;;;;;;;;;;5055111;28;20715;-89
2023/08/25 02:52:50;;;;;;;5.15;4.15;;;;;;;;;;5054891;28;20041;-89
2023/08/25 02:55:18;;;;;;;7.47;3.70;;;;;;;;;;5054747;28;20035;-89
2023/08/25 02:57:47;;;;;;;6.65;3.33;;;;;;;;;;5055167;28;20029;-89
2023/08/25 03:00:13;;;;;;;6.78;3.50;;;;;;;;;;5073389;28;20321;-89
2023/08/25 03:02:39;;;;;;;6.90;3.08;;;;;;;;;;5071974;28;20027;-89
2023/08/25 03:05:05;;;;;;;5.03;3.40;;;;;;;;;;5072858;28;20008;-90
2023/08/25 03:07:30;;;;;;;6.13;3.20;;;;;;;;;;5055801;28;20513;-89
2023/08/25 03:09:56;;;;;;;6.25;3.53;;;;;;;;;;5073415;28;20017;-89
2023/08/25 03:12:21;;;;;;;6.43;3.58;;;;;;;;;;5055419;28;20081;-88
2023/08/25 03:14:47;;;;;;;8.05;3.20;;;;;;;;;;5065479;28;20028;-91
2023/08/25 03:17:12;;;;;;;4.45;2.90;;;;;;;;;;5058002;28;20103;-85
2023/08/25 03:19:38;;;;;;;13.35;3.65;;;;;;;;;;5055268;28;20495;-85
2023/08/25 03:22:04;;;;;;;4.90;3.20;;;;;;;;;;5055527;28;20021;-85
2023/08/25 03:24:29;;;;;;;4.95;3.47;;;;;;;;;;5078520;28;20013;-85
2023/08/25 03:27:03;;;;;;;4.68;3.28;;;;;;;;;;5068360;28;20103;-91
2023/08/25 03:29:28;;;;;;;4.28;3.03;;;;;;;;;;5082706;28;20017;-91
2023/08/25 03:31:54;;;;;;;5.82;3.47;;;;;;;;;;5081899;28;20099;-90
2023/08/25 03:34:19;;;;;;;4.97;3.20;;;;;;;;;;5079368;28;20367;-91
2023/08/25 03:36:45;;;;;;;5.50;3.08;;;;;;;;;;5070885;28;20039;-90
2023/08/25 03:39:11;;;;;;;7.38;2.80;;;;;;;;;;5053031;28;20028;-90
2023/08/25 03:41:36;;;;;;;5.20;3.35;;;;;;;;;;5080817;28;20020;-90
2023/08/25 03:44:02;;;;;;;5.32;3.25;;;;;;;;;;5093122;28;20057;-91
2023/08/25 03:46:36;;;;;;;7.13;2.90;;;;;;;;;;5056982;28;20017;-91
2023/08/25 03:49:02;;;;;;;8.63;3.70;;;;;;;;;;5082580;28;20028;-91
2023/08/25 03:51:27;;;;;;;4.75;3.30;;;;;;;;;;5071235;28;20016;-89
2023/08/25 03:53:53;;;;;;;8.10;3.60;;;;;;;;;;5071249;28;20015;-91
2023/08/25 03:56:18;;;;;;;9.38;3.28;;;;;;;;;;5061817;28;20016;-90
2023/08/25 03:58:43;;;;;;;12.52;3.40;;;;;;;;;;5075824;28;20057;-91
2023/08/25 04:01:08;;;;;;;8.02;3.10;;;;;;;;;;5074386;28;20020;-91
2023/08/25 04:03:34;;;;;;;5.55;3.17;;;;;;;;;;5088457;28;20025;-90
2023/08/25 04:05:59;;;;;;;11.75;3.38;;;;;;;;;;5089098;28;20436;-91
2023/08/25 04:08:25;;;;;;;7.90;3.63;;;;;;;;;;5072847;28;20012;-90
2023/08/25 04:10:51;;;;;;;5.53;3.28;;;;;;;;;;5051631;28;20025;-89
2023/08/25 04:13:16;;;;;;;5.57;3.35;;;;;;;;;;5054828;28;20033;-90
2023/08/25 04:15:41;;;;;;;7.60;2.80;;;;;;;;;;5055480;28;20021;-91
2023/08/25 04:18:07;;;;;;;5.53;2.70;;;;;;;;;;5055074;28;20032;-89
2023/08/25 04:20:32;;;;;;;4.60;3.00;;;;;;;;;;5054703;28;20060;-90
2023/08/25 04:22:59;;;;;;;4.15;2.60;;;;;;;;;;5061821;28;20024;-90
2023/08/25 04:25:27;;;;;;;4.15;2.78;;;;;;;;;;5070822;28;20069;-90
2023/08/25 04:27:52;;;;;;;7.78;2.80;;;;;;;;;;5058850;28;20028;-91
2023/08/25 04:30:22;;;;;;;5.45;2.55;;;;;;;;;;5053790;28;20016;-90
2023/08/25 04:32:48;;;;;;;6.47;3.15;;;;;;;;;;5073142;28;20373;-90
2023/08/25 04:35:15;;;;;;;4.40;2.72;;;;;;;;;;5054668;28;20040;-89
2023/08/25 04:37:44;;;;;;;4.20;2.95;;;;;;;;;;5087840;28;20028;-89
2023/08/25 04:40:09;;;;;;;5.40;2.88;;;;;;;;;;5099999;28;20360;-90
2023/08/25 04:42:35;;;;;;;5.88;3.13;;;;;;;;;;5079275;28;20024;-89
2023/08/25 04:45:01;;;;;;;11.48;3.45;;;;;;;;;;5058759;28;20524;-89
2023/08/25 04:47:26;;;;;;;5.35;3.30;;;;;;;;;;5070638;28;20062;-90
2023/08/25 04:49:55;;;;;;;6.95;3.38;;;;;;;;;;5055608;28;20539;-89
2023/08/25 04:52:21;;;;;;;7.97;2.92;;;;;;;;;;5062374;28;20036;-89
2023/08/25 04:54:50;;;;;;;4.50;3.08;;;;;;;;;;5068594;28;20020;-90
2023/08/25 04:57:16;;;;;;;7.22;3.08;;;;;;;;;;5067503;28;20013;-82
2023/08/25 04:59:44;;;;;;;4.88;3.15;;;;;;;;;;5061865;28;20035;-85
2023/08/25 05:02:10;;;;;;;7.97;3.30;;;;;;;;;;5059649;28;20040;-82
2023/08/25 05:04:35;;;;;;;11.38;3.50;;;;;;;;;;5063417;28;20387;-83
2023/08/25 05:07:01;;;;;;;7.63;3.13;;;;;;;;;;5066850;28;20124;-83
2023/08/25 05:09:28;;;;;;;10.88;2.95;;;;;;;;;;5085223;28;20039;-85
2023/08/25 05:11:53;;;;;;;11.63;3.50;;;;;;;;;;5063537;28;20012;-85
2023/08/25 05:14:22;;;;;;;7.03;3.78;;;;;;;;;;5057795;28;20440;-85
2023/08/25 05:16:49;;;;;;;8.95;3.10;;;;;;;;;;5074291;28;20032;-84
2023/08/25 05:19:15;;;;;;;6.45;3.08;;;;;;;;;;5057535;28;20380;-85
2023/08/25 05:21:40;;;;;;;10.27;3.88;;;;;;;;;;5075121;28;20042;-85
2023/08/25 05:24:22;;;;;;;8.43;3.92;;;;;;;;;;5056992;28;20016;-86
2023/08/25 05:26:54;;;;;;;6.13;3.15;;;;;;;;;;5072516;28;20371;-84
2023/08/25 05:29:31;;;;;;;6.47;3.65;;;;;;;;;;5057951;28;20017;-85
2023/08/25 05:31:56;;;;;;;7.95;3.67;;;;;;;;;;5057195;28;20681;-85
2023/08/25 05:34:22;;;;;;;10.45;3.75;;;;;;;;;;5057227;28;20074;-85
2023/08/25 05:36:47;;;;;;;7.90;3.90;;;;;;;;;;5056446;28;20035;-85
2023/08/25 05:39:12;;;;;;;10.20;4.07;;;;;;;;;;5057399;28;20047;-85
2023/08/25 05:41:38;;;;;;;7.28;3.70;;;;;;;;;;5090009;28;20107;-85
2023/08/25 05:44:03;;;;;;;12.38;4.13;;;;;;;;;;5056704;28;20044;-85
2023/08/25 05:46:30;;;;;;;8.00;4.05;;;;;;;;;;5053806;28;20119;-85
2023/08/25 05:48:55;;;;;;;7.47;3.58;;;;;;;;;;5056089;28;20371;-85
2023/08/25 05:51:20;;;;;;;11.77;3.60;;;;;;;;;;5073918;28;20051;-85
2023/08/25 05:53:48;;;;;;;11.10;3.40;;;;;;;;;;5074018;28;20229;-85
2023/08/25 05:56:13;;;;;;;7.50;3.35;;;;;;;;;;5055282;28;20023;-85
2023/08/25 05:58:40;;;;;;;7.85;4.15;;;;;;;;;;5055467;28;20036;-85
2023/08/25 06:01:10;;;;;;;7.50;4.57;;;;;;;;;;5073800;28;20020;-86
2023/08/25 06:03:35;;;;;;;11.23;4.03;;;;;;;;;;5059811;28;20025;-85
2023/08/25 06:06:00;;;;;;;7.55;3.72;;;;;;;;;;5053982;28;20026;-86
2023/08/25 06:08:26;;;;;;;7.13;3.92;;;;;;;;;;5059479;28;20024;-85
2023/08/25 06:10:52;;;;;;;6.90;3.55;;;;;;;;;;5075780;28;20493;-85
2023/08/25 06:13:17;;;;;;;13.55;4.20;;;;;;;;;;5074176;28;20070;-85
2023/08/25 06:15:43;;;;;;;8.40;3.58;;;;;;;;;;5051068;28;20032;-85
2023/08/25 06:18:13;;;;;;;6.10;3.28;;;;;;;;;;5058557;28;20020;-85
2023/08/25 06:20:41;;;;;;;9.05;3.95;;;;;;;;;;5061799;28;20452;-85
2023/08/25 06:23:08;;;;;;;9.18;4.22;;;;;;;;;;5063088;28;20036;-85
2023/08/25 06:25:34;;;;;;;8.57;3.58;;;;;;;;;;5078818;28;20027;-85
2023/08/25 06:28:00;;;;;;;7.15;3.53;;;;;;;;;;5076646;28;20029;-86
2023/08/25 06:30:26;;;;;;;9.68;4.05;;;;;;;;;;5061414;28;20012;-86
2023/08/25 06:32:52;;;;;;;9.57;4.18;;;;;;;;;;5052607;28;20032;-87
2023/08/25 06:35:17;;;;;;;9.02;4.55;;;;;;;;;;5076641;28;20074;-87
2023/08/25 06:37:43;;;;;;;7.80;4.35;;;;;;;;;;5068157;28;20025;-87
2023/08/25 06:40:08;;;;;;;18.50;5.40;;;;;;;;;;5061046;28;20033;-87
2023/08/25 06:42:37;;;;;;;15.27;5.28;;;;;;;;;;5056945;28;20138;-87
2023/08/25 06:45:02;;;;;;;8.02;4.40;;;;;;;;;;5076046;28;20234;-87
2023/08/25 06:47:28;;;;;;;8.25;4.45;;;;;;;;;;5056417;28;20107;-87
2023/08/25 06:49:54;;;;;;;10.93;4.40;;;;;;;;;;5065859;28;20051;-87
2023/08/25 06:52:19;;;;;;;10.63;4.30;;;;;;;;;;5054677;28;20452;-86
2023/08/25 06:54:44;;;;;;;18.10;4.80;;;;;;;;;;5074590;28;20024;-87
2023/08/25 06:57:10;;;;;;;12.60;4.78;;;;;;;;;;5055841;28;20115;-87
2023/08/25 06:59:35;;;;;;;10.35;4.65;;;;;;;;;;5074143;28;20463;-87
2023/08/25 07:02:00;;;;;;;11.90;5.05;;;;;;;;;;5055096;28;20411;-86
2023/08/25 07:04:26;;;;;;;9.75;4.05;;;;;;;;;;5073909;28;20017;-87
2023/08/25 07:06:51;;;;;;;10.77;5.05;;;;;;;;;;5056278;28;20044;-87
2023/08/25 07:09:17;;;;;;;11.68;4.68;;;;;;;;;;5056307;28;20086;-87
2023/08/25 07:11:45;;;;;;;9.82;4.97;;;;;;;;;;5054558;28;20016;-86
2023/08/25 07:14:10;;;;;;;10.40;5.57;;;;;;;;;;5055562;28;20482;-86
2023/08/25 07:16:35;;;;;;;8.35;5.18;;;;;;;;;;5055234;28;20031;-87
2023/08/25 07:19:01;;;;;;;10.95;5.35;;;;;;;;;;5054336;28;20023;-87
2023/08/25 07:21:26;;;;;;;14.07;5.88;;;;;;;;;;5054789;28;20113;-86
2023/08/25 07:23:51;;;;;;;17.65;4.75;;;;;;;;;;5071556;28;20116;-87
2023/08/25 07:26:19;;;;;;;12.63;5.45;;;;;;;;;;5071451;28;20021;-86
2023/08/25 07:28:46;;;;;;;12.15;5.78;;;;;;;;;;5040510;28;20356;-86
2023/08/25 07:31:11;;;;;;;14.32;6.93;;;;;;;;;;5053895;28;20060;-87
2023/08/25 07:33:37;;;;;;;10.88;5.55;;;;;;;;;;5053202;28;20048;-87
2023/08/25 07:36:03;;;;;;;11.50;5.70;;;;;;;;;;5059881;28;20012;-85
2023/08/25 07:38:29;;;;;;;11.10;5.60;;;;;;;;;;5058634;28;20031;-85
2023/08/25 07:40:55;;;;;;;13.90;5.63;;;;;;;;;;5055171;28;20111;-85
2023/08/25 07:43:21;;;;;;;11.57;5.70;;;;;;;;;;5067458;28;20449;-85
2023/08/25 07:45:46;;;;;;;9.77;5.50;;;;;;;;;;5058061;28;20076;-85
2023/08/25 07:48:15;;;;;;;11.93;5.75;;;;;;;;;;5063395;28;20036;-85
2023/08/25 07:50:44;;;;;;;8.85;4.68;;;;;;;;;;5063852;28;20047;-85
2023/08/25 07:53:12;;;;;;;11.82;5.70;;;;;;;;;;5074929;28;20020;-87
2023/08/25 07:55:39;;;;;;;9.80;5.28;;;;;;;;;;5053682;28;20026;-87
2023/08/25 07:58:05;;;;;;;10.07;5.20;;;;;;;;;;5049293;28;20085;-88
2023/08/25 08:00:31;;;;;;;11.63;5.72;;;;;;;;;;5056772;28;20028;-89
2023/08/25 08:02:56;;;;;;;8.20;4.45;;;;;;;;;;5058651;28;20028;-89
2023/08/25 08:05:21;;;;;;;15.95;5.32;;;;;;;;;;5075339;28;20051;-88
2023/08/25 08:07:47;;;;;;;14.25;5.82;;;;;;;;;;5048006;28;20023;-89
2023/08/25 08:10:13;;;;;;;13.68;5.00;;;;;;;;;;5073734;28;20017;-90
2023/08/25 08:12:39;;;;;;;12.63;5.20;;;;;;;;;;5068318;28;20081;-89
2023/08/25 08:15:07;;;;;;;11.48;5.97;;;;;;;;;;5055788;28;20032;-89
2023/08/25 08:17:35;;;;;;;17.80;6.30;;;;;;;;;;5059905;28;20116;-87
2023/08/25 08:20:00;;;;;;;12.32;6.05;;;;;;;;;;5070286;28;20100;-90
2023/08/25 08:22:27;;;;;;;11.98;5.50;;;;;;;;;;5069402;28;20045;-90
2023/08/25 08:24:53;;;;;;;11.52;5.50;;;;;;;;;;5067457;28;20063;-89
2023/08/25 08:27:18;;;;;;;15.73;6.72;;;;;;;;;;5045091;28;20120;-92
2023/08/25 08:29:47;;;;;;;13.13;4.78;;;;;;;;;;5041259;28;20025;-95
2023/08/25 08:32:13;;;;;;;13.60;5.13;;;;;;;;;;5053642;28;20332;-96
2023/08/25 08:34:38;;;;;;;9.18;5.20;;;;;;;;;;5052225;28;20014;-93
2023/08/25 08:37:05;;;;;;;10.52;6.15;;;;;;;;;;5065964;28;20032;-91
2023/08/25 08:39:32;;;;;;;8.18;4.93;;;;;;;;;;5054641;28;20052;-93
2023/08/25 08:41:57;;;;;;;8.57;4.38;;;;;;;;;;5076192;28;20032;-94
2023/08/25 08:44:23;;;;;;;8.50;5.90;;;;;;;;;;5059408;28;20096;-94
2023/08/25 08:46:49;;;;;;;9.60;5.55;;;;;;;;;;5062265;28;20025;-93
2023/08/25 08:49:14;;;;;;;9.77;5.43;;;;;;;;;;5064338;28;20013;-93
2023/08/25 08:51:41;;;;;;;12.25;4.85;;;;;;;;;;5077110;28;20051;-92
2023/08/25 08:54:07;;;;;;;10.38;5.75;;;;;;;;;;5061401;28;20020;-92
2023/08/25 08:56:34;;;;;;;11.30;5.70;;;;;;;;;;5076663;28;20034;-94
2023/08/25 08:58:59;;;;;;;10.88;5.97;;;;;;;;;;5069045;28;20095;-93
2023/08/25 09:01:25;;;;;;;9.20;5.55;;;;;;;;;;5072048;28;20012;-93
2023/08/25 09:03:51;;;;;;;16.63;7.20;;;;;;;;;;5067251;28;20039;-95
2023/08/25 09:06:17;;;;;;;13.38;6.40;;;;;;;;;;5083862;28;20013;-93
2023/08/25 09:14:49;;;;;;;11.38;6.18;;;;;;;;;;5019143;28;20076;-93
2023/08/25 09:17:15;;;;;;;13.43;7.13;;;;;;;;;;5059970;28;20029;-93
2023/08/25 09:19:41;;;;;;;12.10;6.63;;;;;;;;;;5061873;28;20085;-93
2023/08/25 09:22:09;;;;;;;10.95;6.53;;;;;;;;;;5082009;28;20039;-92
2023/08/25 09:24:36;;;;;;;10.13;5.80;;;;;;;;;;5065363;28;20032;-93
2023/08/25 09:27:01;;;;;;;11.85;6.53;;;;;;;;;;5059290;28;20024;-94
2023/08/25 09:29:39;;;;;;;13.43;7.70;;;;;;;;;;5062977;28;20043;-93
2023/08/25 09:32:12;;;;;;;15.18;7.65;;;;;;;;;;5064181;28;20021;-93
2023/08/25 09:34:38;;;;;;;10.68;7.80;;;;;;;;;;5063330;28;20027;-93
2023/08/25 09:37:04;;;;;;;13.57;8.25;;;;;;;;;;5095627;28;20111;-93
2023/08/25 09:39:29;;;;;;;16.80;8.75;;;;;;;;;;5069182;28;20024;-92
2023/08/25 09:42:05;;;;;;;15.25;9.75;;;;;;;;;;5068907;28;20016;-92
2023/08/25 09:44:32;;;;;;;19.10;10.15;;;;;;;;;;5060023;28;20108;-93
2023/08/25 09:46:57;;;;;;;20.58;9.68;;;;;;;;;;5060876;28;20085;-92
2023/08/25 09:49:23;;;;;;;15.90;9.65;;;;;;;;;;5049588;28;20080;-92
2023/08/25 09:51:50;;;;;;;19.17;10.45;;;;;;;;;;5059955;28;20464;-91
2023/08/25 09:54:16;;;;;;;16.40;9.82;;;;;;;;;;5063051;28;20033;-93
2023/08/25 09:56:42;;;;;;;19.00;10.20;;;;;;;;;;5084617;28;20025;-93
2023/08/25 09:59:10;;;;;;;25.30;10.85;;;;;;;;;;5065682;28;20027;-92
2023/08/25 10:01:36;;;;;;;17.92;10.40;;;;;;;;;;5076667;28;20036;-93
2023/08/25 10:04:03;;;;;;;18.77;10.52;;;;;;;;;;5076754;28;20098;-93
2023/08/25 10:06:30;;;;;;;20.98;10.65;;;;;;;;;;5078248;28;20033;-94
2023/08/25 10:08:59;;;;;;;21.20;11.05;;;;;;;;;;5077787;28;20059;-93
2023/08/25 10:11:27;;;;;;;19.23;10.90;;;;;;;;;;5068004;28;20021;-94
2023/08/25 10:13:54;;;;;;;21.70;11.15;;;;;;;;;;5075521;28;20013;-93
2023/08/25 10:16:23;;;;;;;20.00;10.48;;;;;;;;;;5089586;28;20047;-94
2023/08/25 10:18:48;;;;;;;18.35;10.02;;;;;;;;;;5059214;28;20032;-92
2023/08/25 10:21:15;;;;;;;19.17;8.95;;;;;;;;;;5052311;28;20082;-93
2023/08/25 10:23:40;;;;;;;16.58;10.07;;;;;;;;;;5081741;28;20047;-94
2023/08/25 10:26:06;;;;;;;16.55;9.48;;;;;;;;;;5067033;28;20370;-93
2023/08/25 10:28:32;;;;;;;18.90;9.93;;;;;;;;;;5057180;28;20074;-93
2023/08/25 10:30:58;;;;;;;19.35;10.10;;;;;;;;;;5072079;28;20475;-93
2023/08/25 10:33:23;;;;;;;14.63;8.90;;;;;;;;;;5057759;28;20112;-93
2023/08/25 10:35:48;;;;;;;14.40;9.40;;;;;;;;;;5057202;28;20019;-94
2023/08/25 10:38:32;;;;;;;16.55;10.32;;;;;;;;;;5057015;28;20487;-93
2023/08/25 10:41:09;;;;;;;16.40;9.45;;;;;;;;;;5057274;28;20428;-93
2023/08/25 10:43:37;;;;;;;16.58;9.70;;;;;;;;;;5072773;28;20119;-93
2023/08/25 10:46:06;;;;;;;16.17;9.85;;;;;;;;;;5076313;28;20039;-94
2023/08/25 10:48:31;;;;;;;18.45;10.40;;;;;;;;;;5079053;28;20039;-92
2023/08/25 10:51:08;;;;;;;18.55;10.65;;;;;;;;;;5077010;28;20028;-91
2023/08/25 10:53:38;;;;;;;15.45;9.48;;;;;;;;;;5056239;28;20016;-90
2023/08/25 10:56:13;;;;;;;19.20;11.70;;;;;;;;;;5068089;28;20103;-91
2023/08/25 10:58:39;;;;;;;19.52;11.43;;;;;;;;;;5065992;28;20097;-91
2023/08/25 11:01:04;;;;;;;22.35;12.23;;;;;;;;;;5074773;28;20439;-91
2023/08/25 11:03:46;;;;;;;22.08;11.68;;;;;;;;;;5064527;28;20025;-89
2023/08/25 11:06:30;;;;;;;20.55;11.98;;;;;;;;;;5059486;28;20471;-95
2023/08/25 11:08:56;;;;;;;21.65;11.80;;;;;;;;;;5087762;28;20031;-93
2023/08/25 11:11:21;;;;;;;22.40;12.18;;;;;;;;;;5067083;28;20020;-92
2023/08/25 11:13:50;;;;;;;23.48;12.68;;;;;;;;;;5063649;28;20044;-94
2023/08/25 11:16:15;;;;;;;28.70;13.60;;;;;;;;;;5071810;28;20013;-92
2023/08/25 11:18:44;;;;;;;26.63;12.55;;;;;;;;;;5056097;28;20493;-93
2023/08/25 11:21:10;;;;;;;30.98;14.18;;;;;;;;;;5056904;28;20028;-91
2023/08/25 11:23:36;;;;;;;35.63;16.05;;;;;;;;;;5055626;28;20426;-91
2023/08/25 11:26:02;;;;;;;37.65;17.83;;;;;;;;;;5056118;28;20017;-88
2023/08/25 11:28:27;;;;;;;30.92;15.25;;;;;;;;;;5055721;28;20463;-92
2023/08/25 11:30:53;;;;;;;31.95;15.10;;;;;;;;;;5056647;28;20020;-93
2023/08/25 11:33:18;;;;;;;35.08;15.57;;;;;;;;;;5054442;28;20021;-93
2023/08/25 11:35:44;;;;;;;33.08;15.15;;;;;;;;;;5067328;28;20021;-93
2023/08/25 11:38:12;;;;;;;29.85;13.23;;;;;;;;;;5056130;28;20020;-94
2023/08/25 11:40:38;;;;;;;33.33;15.02;;;;;;;;;;5042532;28;20025;-92
2023/08/25 11:43:04;;;;;;;32.80;15.00;;;;;;;;;;5050196;28;20430;-93
2023/08/25 11:45:31;;;;;;;25.98;12.85;;;;;;;;;;5070881;28;20020;-94
2023/08/25 11:47:56;;;;;;;28.27;12.77;;;;;;;;;;5061914;28;20398;-93
2023/08/25 11:50:21;;;;;;;30.83;14.30;;;;;;;;;;5059126;28;20048;-93
2023/08/25 11:52:47;;;;;;;35.95;13.70;;;;;;;;;;5067656;28;20027;-96
2023/08/25 11:55:15;;;;;;;32.22;13.77;;;;;;;;;;5068501;28;20016;-96
2023/08/25 11:57:42;;;;;;;34.03;14.43;;;;;;;;;;5065312;28;20063;-96
2023/08/25 12:00:10;;;;;;;29.35;13.82;;;;;;;;;;5073332;28;20031;-95
2023/08/25 12:02:35;;;;;;;27.13;13.13;;;;;;;;;;5090207;28;20042;-96
2023/08/25 12:05:13;;;;;;;28.20;14.60;;;;;;;;;;5080360;28;20032;-96
2023/08/25 12:10:42;;;;;;;37.10;14.90;;;;;;;;;;5520511;22;20074;-94
2023/08/25 12:13:07;;;;;;;28.63;13.57;;;;;;;;;;5055117;28;20021;-96
2023/08/25 12:15:40;;;;;;;43.70;17.05;;;;;;;;;;5062361;28;20021;-95
2023/08/25 12:18:06;;;;;;;31.08;14.98;;;;;;;;;;5054333;28;20102;-95
2023/08/25 12:20:31;;;;;;;44.28;17.48;;;;;;;;;;5054218;28;20029;-96
2023/08/25 12:23:00;;;;;;;47.17;18.33;;;;;;;;;;5048757;28;20426;-95
2023/08/25 12:25:26;;;;;;;49.15;19.70;;;;;;;;;;5049080;28;20017;-95
2023/08/25 12:27:52;;;;;;;49.88;20.30;;;;;;;;;;5058920;28;20035;-94
2023/08/25 12:30:21;;;;;;;57.38;20.63;;;;;;;;;;5054620;28;20103;-95
2023/08/25 12:32:49;;;;;;;64.95;22.17;;;;;;;;;;5046047;28;20048;-95
2023/08/25 12:35:14;;;;;;;70.85;23.58;;;;;;;;;;5031968;28;20056;-94
2023/08/25 12:37:40;;;;;;;68.70;22.98;;;;;;;;;;5048455;28;20080;-96
2023/08/25 12:40:07;;;;;;;71.05;23.60;;;;;;;;;;5059815;28;20021;-95
2023/08/25 12:42:32;;;;;;;65.05;23.38;;;;;;;;;;5053728;28;20013;-93
2023/08/25 12:44:58;;;;;;;74.80;24.35;;;;;;;;;;5064452;28;20020;-93
2023/08/25 12:47:24;;;;;;;70.10;23.27;;;;;;;;;;5042144;28;20032;-90
2023/08/25 12:49:49;;;;;;;86.15;24.80;;;;;;;;;;5041136;28;20399;-91
2023/08/25 12:52:16;;;;;;;85.35;25.77;;;;;;;;;;5037558;28;20079;-91
2023/08/25 12:54:42;;;;;;;91.50;26.02;;;;;;;;;;5026417;28;20405;-91
2023/08/25 12:57:10;;;;;;;107.00;29.17;;;;;;;;;;5047484;28;20059;-89
2023/08/25 12:59:36;;;;;;;100.13;29.73;;;;;;;;;;5032745;28;20444;-90
2023/08/25 13:02:01;;;;;;;88.55;27.95;;;;;;;;;;5039232;28;20131;-91
2023/08/25 13:04:32;;;;;;;95.07;27.92;;;;;;;;;;5037902;28;20449;-93
2023/08/25 13:07:01;;;;;;;105.80;29.13;;;;;;;;;;5026186;28;20035;-92
2023/08/25 13:09:26;;;;;;;110.57;30.58;;;;;;;;;;5038858;28;20049;-94
2023/08/25 13:11:54;;;;;;;124.22;33.90;;;;;;;;;;5033990;28;20471;-91
2023/08/25 13:14:20;;;;;;;123.95;34.40;;;;;;;;;;5039747;28;20543;-93
2023/08/25 13:16:46;;;;;;;104.88;32.20;;;;;;;;;;5039375;28;20203;-92
2023/08/25 13:19:13;;;;;;;87.93;30.92;;;;;;;;;;5036399;28;20036;-92
2023/08/25 13:21:38;;;;;;;76.63;26.98;;;;;;;;;;5038246;28;20441;-92
2023/08/25 13:24:04;;;;;;;69.03;25.60;;;;;;;;;;5038251;28;20032;-93
2023/08/25 13:26:29;;;;;;;77.10;28.17;;;;;;;;;;5038544;28;20021;-91
2023/08/25 13:28:54;;;;;;;70.47;26.80;;;;;;;;;;5038441;28;20023;-93
2023/08/25 13:31:20;;;;;;;60.05;23.05;;;;;;;;;;5038548;28;20112;-91
2023/08/25 13:33:45;;;;;;;62.67;20.65;;;;;;;;;;5037483;28;20032;-92
2023/08/25 13:36:10;;;;;;;58.53;23.10;;;;;;;;;;5038547;28;20025;-92
2023/08/25 13:38:38;;;;;;;71.40;25.77;;;;;;;;;;5038885;28;20094;-91
2023/08/25 13:41:04;;;;;;;70.72;27.17;;;;;;;;;;5033611;28;20352;-91
2023/08/25 13:43:29;;;;;;;68.72;25.85;;;;;;;;;;5038584;28;20044;-91
2023/08/25 13:45:55;;;;;;;60.00;25.33;;;;;;;;;;5038291;28;20037;-91
2023/08/25 13:48:20;;;;;;;69.00;29.20;;;;;;;;;;5033988;28;20040;-92
2023/08/25 13:50:46;;;;;;;55.05;24.58;;;;;;;;;;5037044;28;20032;-90
2023/08/25 13:53:12;;;;;;;50.25;23.23;;;;;;;;;;5035170;28;20028;-91
2023/08/25 13:55:37;;;;;;;48.38;20.48;;;;;;;;;;5039241;28;20460;-92
2023/08/25 13:58:03;;;;;;;49.28;22.80;;;;;;;;;;5039716;28;20396;-91
2023/08/25 14:00:31;;;;;;;39.30;18.15;;;;;;;;;;5060739;28;20032;-91
2023/08/25 14:02:57;;;;;;;39.05;18.15;;;;;;;;;;5050426;28;20039;-91
2023/08/25 14:05:22;;;;;;;39.22;18.88;;;;;;;;;;5038768;28;20033;-91
2023/08/25 14:07:51;;;;;;;42.50;18.23;;;;;;;;;;5036614;28;20429;-92
2023/08/25 14:10:17;;;;;;;35.28;16.33;;;;;;;;;;5039094;28;20024;-92
2023/08/25 14:12:43;;;;;;;38.80;17.48;;;;;;;;;;5052878;28;20432;-91
2023/08/25 14:15:11;;;;;;;35.97;15.90;;;;;;;;;;5038383;28;20075;-92
2023/08/25 14:17:36;;;;;;;33.03;14.35;;;;;;;;;;5039466;28;20069;-91
2023/08/25 14:20:03;;;;;;;33.95;14.60;;;;;;;;;;5036831;28;20146;-92
2023/08/25 14:22:28;;;;;;;38.25;15.98;;;;;;;;;;5048813;28;20017;-92
2023/08/25 14:24:53;;;;;;;32.90;15.15;;;;;;;;;;5043877;28;20048;-91
2023/08/25 14:27:19;;;;;;;34.97;15.50;;;;;;;;;;5048339;28;20024;-90
2023/08/25 14:29:44;;;;;;;35.33;15.85;;;;;;;;;;5038257;28;20047;-91
2023/08/25 14:32:09;;;;;;;34.13;13.35;;;;;;;;;;5037014;28;20027;-91
2023/08/25 14:34:37;;;;;;;34.55;15.43;;;;;;;;;;5038142;28;20013;-91
2023/08/25 14:37:05;;;;;;;39.08;14.70;;;;;;;;;;5035838;28;20021;-90